createdAt,value
2019-06-27T00:00:10.577Z,11.20
2019-06-27T00:02:39.299Z,11.40
2019-06-27T00:05:08.115Z,10.97
2019-06-27T00:07:36.905Z,11.50
2019-06-27T00:10:05.809Z,10.43
2019-06-27T00:12:34.457Z,10.87
2019-06-27T00:15:03.089Z,10.70
2019-06-27T00:17:31.815Z,10.80
2019-06-27T00:20:00.461Z,10.43
2019-06-27T00:22:29.111Z,11.00
2019-06-27T00:24:57.752Z,10.70
2019-06-27T00:27:26.405Z,10.97
2019-06-27T00:29:55.054Z,10.07
2019-06-27T00:32:23.695Z,10.27
2019-06-27T00:34:52.438Z,9.80
2019-06-27T00:37:21.083Z,10.67
2019-06-27T00:39:49.755Z,10.70
2019-06-27T00:42:18.643Z,11.60
2019-06-27T00:44:47.279Z,10.40
2019-06-27T00:47:15.938Z,10.53
2019-06-27T00:49:44.585Z,11.10
2019-06-27T00:52:13.296Z,9.83
2019-06-27T00:54:42.003Z,10.13
2019-06-27T00:57:14.515Z,10.07
2019-06-27T00:59:41.091Z,10.33
2019-06-27T01:02:09.719Z,9.83
2019-06-27T01:04:38.426Z,10.47
2019-06-27T01:07:07.047Z,9.97
2019-06-27T01:09:35.674Z,10.03
2019-06-27T01:12:04.483Z,10.10
2019-06-27T01:14:33.126Z,9.60
2019-06-27T01:17:01.842Z,10.40
2019-06-27T01:19:30.579Z,10.10
2019-06-27T01:21:59.193Z,10.70
2019-06-27T01:24:27.896Z,10.30
2019-06-27T01:26:56.521Z,9.50
2019-06-27T01:29:25.183Z,9.83
2019-06-27T01:31:53.862Z,10.03
2019-06-27T01:34:22.559Z,9.70
2019-06-27T01:36:51.199Z,10.60
2019-06-27T01:39:19.833Z,11.07
2019-06-27T01:41:48.533Z,9.97
2019-06-27T01:44:34.713Z,10.20
2019-06-27T01:47:04.020Z,9.70
2019-06-27T01:49:32.736Z,9.73
2019-06-27T01:52:01.482Z,9.07
2019-06-27T01:54:30.166Z,9.13
2019-06-27T01:56:58.854Z,9.30
2019-06-27T01:59:27.501Z,9.60
2019-06-27T02:01:56.480Z,9.60
2019-06-27T02:04:25.202Z,10.00
2019-06-27T02:06:53.834Z,8.73
2019-06-27T02:09:22.550Z,10.07
2019-06-27T02:11:51.218Z,8.83
2019-06-27T02:14:19.826Z,8.90
2019-06-27T02:16:48.515Z,9.73
2019-06-27T02:19:17.208Z,9.87
2019-06-27T02:21:45.858Z,9.90
2019-06-27T02:24:14.499Z,9.20
2019-06-27T02:26:43.119Z,8.73
2019-06-27T02:29:19.810Z,9.80
2019-06-27T02:31:48.429Z,9.83
2019-06-27T02:34:17.132Z,9.00
2019-06-27T02:36:45.766Z,8.67
2019-06-27T02:39:14.484Z,9.10
2019-06-27T02:41:43.201Z,10.17
2019-06-27T02:44:11.820Z,8.67
2019-06-27T02:46:40.427Z,8.30
2019-06-27T02:49:09.064Z,8.83
2019-06-27T02:51:37.687Z,9.43
2019-06-27T02:54:06.393Z,9.27
2019-06-27T02:56:35.040Z,9.10
2019-06-27T02:59:03.667Z,8.70
2019-06-27T03:01:32.373Z,8.93
2019-06-27T03:04:01.028Z,8.87
2019-06-27T03:06:29.668Z,9.13
2019-06-27T03:08:58.361Z,8.57
2019-06-27T03:11:27.017Z,8.53
2019-06-27T03:13:55.728Z,7.60
2019-06-27T03:16:24.520Z,7.60
2019-06-27T03:18:53.135Z,8.93
2019-06-27T03:21:21.768Z,8.27
2019-06-27T03:23:50.487Z,8.10
2019-06-27T03:26:19.125Z,7.33
2019-06-27T03:28:53.339Z,8.40
2019-06-27T03:31:18.125Z,8.10
2019-06-27T03:33:46.885Z,8.03
2019-06-27T03:36:15.486Z,8.40
2019-06-27T03:38:44.186Z,9.00
2019-06-27T03:41:12.814Z,7.97
2019-06-27T03:43:41.521Z,7.80
2019-06-27T03:46:10.165Z,7.27
2019-06-27T03:48:38.887Z,7.90
2019-06-27T03:51:07.523Z,7.47
2019-06-27T03:53:36.148Z,7.33
2019-06-27T03:56:04.859Z,7.63
2019-06-27T03:58:33.630Z,7.10
2019-06-27T04:01:02.297Z,7.87
2019-06-27T04:03:30.989Z,7.20
2019-06-27T04:05:59.604Z,8.50
2019-06-27T04:08:28.226Z,7.50
2019-06-27T04:10:56.962Z,7.77
2019-06-27T04:13:25.689Z,7.40
2019-06-27T04:15:54.341Z,8.30
2019-06-27T04:18:22.982Z,8.10
2019-06-27T04:20:51.585Z,7.67
2019-06-27T04:23:20.274Z,8.20
2019-06-27T04:25:48.962Z,8.63
2019-06-27T04:28:17.587Z,7.37
2019-06-27T04:30:46.222Z,7.30
2019-06-27T04:33:15.060Z,7.40
2019-06-27T04:35:43.677Z,7.47
2019-06-27T04:38:12.292Z,7.20
2019-06-27T04:40:40.905Z,8.03
2019-06-27T04:43:09.648Z,7.13
2019-06-27T04:45:38.293Z,7.10
2019-06-27T04:48:06.924Z,7.60
2019-06-27T04:50:35.561Z,7.30
2019-06-27T04:53:04.209Z,7.20
2019-06-27T04:55:32.862Z,6.77
2019-06-27T04:58:04.524Z,7.10
2019-06-27T05:00:33.199Z,6.03
2019-06-27T05:03:01.824Z,6.20
2019-06-27T05:05:30.435Z,6.90
2019-06-27T05:07:59.064Z,6.50
2019-06-27T05:10:27.688Z,6.37
2019-06-27T05:12:56.310Z,7.60
2019-06-27T05:15:24.934Z,6.57
2019-06-27T05:17:53.940Z,6.30
2019-06-27T05:20:22.583Z,6.27
2019-06-27T05:22:51.297Z,6.30
2019-06-27T05:25:29.452Z,6.70
2019-06-27T05:27:56.487Z,5.23
2019-06-27T05:30:25.202Z,6.03
2019-06-27T05:32:53.967Z,4.93
2019-06-27T05:35:22.604Z,5.63
2019-06-27T05:37:51.413Z,5.00
2019-06-27T05:40:20.967Z,4.90
2019-06-27T05:42:49.603Z,5.03
2019-06-27T05:45:18.358Z,4.97
2019-06-27T05:47:46.977Z,4.03
2019-06-27T05:50:15.698Z,4.33
2019-06-27T05:52:44.354Z,4.03
2019-06-27T05:55:13.058Z,3.73
2019-06-27T05:57:41.666Z,4.03
2019-06-27T06:00:26.599Z,3.40
2019-06-27T06:02:40.663Z,3.50
2019-06-27T06:05:09.389Z,3.43
2019-06-27T06:07:38.117Z,3.70
2019-06-27T06:10:06.911Z,4.00
2019-06-27T06:12:35.542Z,4.00
2019-06-27T06:15:04.283Z,3.90
2019-06-27T06:17:32.911Z,3.90
2019-06-27T06:20:01.544Z,4.10
2019-06-27T06:22:30.308Z,3.70
2019-06-27T06:24:59.019Z,3.13
2019-06-27T06:27:27.795Z,3.60
2019-06-27T06:29:56.568Z,3.70
2019-06-27T06:32:25.186Z,3.07
2019-06-27T06:34:53.873Z,3.70
2019-06-27T06:37:22.444Z,3.13
2019-06-27T06:39:51.125Z,3.13
2019-06-27T06:42:19.834Z,3.20
2019-06-27T06:44:48.494Z,2.80
2019-06-27T06:47:17.248Z,2.90
2019-06-27T06:49:45.853Z,2.40
2019-06-27T06:52:14.504Z,3.60
2019-06-27T06:54:43.132Z,5.60
2019-06-27T06:57:11.865Z,5.67
2019-06-27T06:59:40.511Z,2.70
2019-06-27T07:02:09.173Z,3.40
2019-06-27T07:04:37.789Z,3.20
2019-06-27T07:07:06.472Z,4.20
2019-06-27T07:09:35.146Z,4.40
2019-06-27T07:12:03.930Z,4.10
2019-06-27T07:14:32.561Z,3.60
2019-06-27T07:17:01.196Z,3.00
2019-06-27T07:19:29.809Z,3.70
2019-06-27T07:21:58.522Z,3.37
2019-06-27T07:24:27.137Z,3.17
2019-06-27T07:26:55.792Z,3.07
2019-06-27T07:29:24.390Z,3.93
2019-06-27T07:31:52.999Z,2.90
2019-06-27T07:34:21.706Z,3.60
2019-06-27T07:36:50.313Z,3.80
2019-06-27T07:39:19.028Z,3.50
2019-06-27T07:41:47.693Z,3.57
2019-06-27T07:44:20.053Z,3.90
2019-06-27T07:46:46.810Z,3.53
2019-06-27T07:49:15.400Z,3.70
2019-06-27T07:51:44.036Z,3.10
2019-06-27T07:54:12.731Z,2.80
2019-06-27T07:56:41.361Z,3.50
2019-06-27T07:59:10.016Z,4.00
2019-06-27T08:01:38.711Z,3.47
2019-06-27T08:04:07.314Z,3.80
2019-06-27T08:06:35.955Z,3.30
2019-06-27T08:09:04.986Z,3.37
2019-06-27T08:11:33.645Z,4.00
2019-06-27T08:14:02.337Z,3.70
2019-06-27T08:16:30.990Z,3.33
2019-06-27T08:18:59.725Z,4.27
2019-06-27T08:21:28.371Z,3.30
2019-06-27T08:23:57.025Z,3.30
2019-06-27T08:26:25.653Z,3.23
2019-06-27T08:28:54.365Z,3.80
2019-06-27T08:31:22.983Z,3.43
2019-06-27T08:33:51.720Z,3.00
2019-06-27T08:36:20.405Z,2.90
2019-06-27T08:38:49.115Z,2.97
2019-06-27T08:41:17.775Z,3.27
2019-06-27T08:43:46.426Z,3.30
2019-06-27T08:46:15.035Z,2.73
2019-06-27T08:48:43.810Z,3.10
2019-06-27T08:51:12.585Z,3.30
2019-06-27T08:53:41.224Z,2.93
2019-06-27T08:56:09.937Z,3.27
2019-06-27T08:58:38.595Z,2.80
2019-06-27T09:01:07.230Z,3.13
2019-06-27T09:03:35.850Z,3.97
2019-06-27T09:06:04.671Z,3.10
2019-06-27T09:08:33.314Z,2.60
2019-06-27T09:11:01.943Z,3.43
2019-06-27T09:13:30.644Z,3.00
2019-06-27T09:15:59.249Z,2.57
2019-06-27T09:18:27.903Z,2.60
2019-06-27T09:20:56.521Z,3.10
2019-06-27T09:23:25.180Z,2.70
2019-06-27T09:25:53.892Z,2.57
2019-06-27T09:28:22.568Z,2.53
2019-06-27T09:30:51.494Z,3.07
2019-06-27T09:33:20.267Z,2.03
2019-06-27T09:35:48.948Z,2.20
2019-06-27T09:38:17.630Z,2.50
2019-06-27T09:40:46.275Z,1.60
2019-06-27T09:43:14.890Z,2.37
2019-06-27T09:45:43.513Z,2.43
2019-06-27T09:48:12.135Z,3.10
2019-06-27T09:50:40.821Z,3.07
2019-06-27T09:53:09.428Z,2.40
2019-06-27T09:55:38.100Z,2.30
2019-06-27T09:58:06.864Z,2.10
2019-06-27T10:00:35.566Z,2.70
2019-06-27T10:03:04.258Z,2.80
2019-06-27T10:05:32.893Z,2.23
2019-06-27T10:08:01.614Z,2.77
2019-06-27T10:10:30.326Z,2.07
2019-06-27T10:12:59.007Z,2.50
2019-06-27T10:15:27.709Z,2.40
2019-06-27T10:17:56.419Z,1.97
2019-06-27T10:20:25.144Z,1.80
2019-06-27T10:22:53.743Z,1.80
2019-06-27T10:25:22.359Z,2.00
2019-06-27T10:27:50.984Z,2.70
2019-06-27T10:30:21.218Z,2.37
2019-06-27T10:32:58.840Z,2.37
2019-06-27T10:35:20.172Z,2.43
2019-06-27T10:37:48.787Z,2.60
2019-06-27T10:40:17.511Z,2.57
2019-06-27T10:42:46.145Z,1.70
2019-06-27T10:45:14.914Z,1.70
2019-06-27T10:47:43.622Z,1.37
2019-06-27T10:50:12.481Z,1.60
2019-06-27T10:52:41.090Z,1.80
2019-06-27T10:55:10.083Z,2.33
2019-06-27T10:57:38.686Z,1.57
2019-06-27T11:00:07.650Z,1.50
2019-06-27T11:02:36.344Z,1.23
2019-06-27T11:05:05.242Z,1.57
2019-06-27T11:07:33.878Z,1.50
2019-06-27T11:10:02.532Z,1.30
2019-06-27T11:12:31.177Z,1.37
2019-06-27T11:15:00.016Z,1.37
2019-06-27T11:17:28.672Z,1.67
2019-06-27T11:19:57.326Z,1.30
2019-06-27T11:22:25.966Z,1.50
2019-06-27T11:24:54.578Z,1.97
2019-06-27T11:27:27.022Z,1.40
2019-06-27T11:29:53.733Z,1.77
2019-06-27T11:32:22.322Z,1.40
2019-06-27T11:34:50.944Z,1.40
2019-06-27T11:37:19.569Z,1.50
2019-06-27T11:39:48.173Z,1.40
2019-06-27T11:42:16.846Z,1.30
2019-06-27T11:44:45.469Z,1.57
2019-06-27T11:47:14.117Z,1.50
2019-06-27T11:49:42.885Z,1.30
2019-06-27T11:52:11.583Z,1.33
2019-06-27T11:54:40.200Z,1.40
2019-06-27T11:57:08.810Z,1.80
2019-06-27T11:59:37.420Z,1.40
2019-06-27T12:02:06.169Z,1.10
2019-06-27T12:04:34.806Z,1.73
2019-06-27T12:07:03.434Z,0.80
2019-06-27T12:09:32.078Z,0.70
2019-06-27T12:12:00.747Z,1.83
2019-06-27T12:14:29.545Z,1.30
2019-06-27T12:16:58.318Z,1.00
2019-06-27T12:19:26.875Z,1.13
2019-06-27T12:21:55.507Z,0.90
2019-06-27T12:24:24.161Z,1.13
2019-06-27T12:26:52.799Z,0.70
2019-06-27T12:29:21.437Z,0.70
2019-06-27T12:31:51.738Z,0.90
2019-06-27T12:34:21.315Z,0.80
2019-06-27T12:36:49.941Z,1.13
2019-06-27T12:39:18.568Z,0.90
2019-06-27T12:41:47.196Z,1.07
2019-06-27T12:44:15.890Z,0.80
2019-06-27T12:46:44.606Z,1.17
2019-06-27T12:49:13.339Z,0.90
2019-06-27T12:51:41.962Z,1.20
2019-06-27T12:54:10.594Z,0.90
2019-06-27T12:56:39.259Z,0.83
2019-06-27T12:59:07.955Z,0.80
2019-06-27T13:01:36.575Z,0.80
2019-06-27T13:04:13.483Z,1.00
2019-06-27T13:06:35.735Z,0.83
2019-06-27T13:09:05.286Z,0.93
2019-06-27T13:11:34.035Z,0.90
2019-06-27T13:14:02.754Z,0.80
2019-06-27T13:16:31.459Z,1.00
2019-06-27T13:19:00.165Z,0.80
2019-06-27T13:21:28.954Z,0.90
2019-06-27T13:23:57.712Z,1.10
2019-06-27T13:26:26.399Z,0.90
2019-06-27T13:28:55.002Z,0.93
2019-06-27T13:31:23.694Z,1.10
2019-06-27T13:33:52.279Z,1.20
2019-06-27T13:36:21.033Z,1.17
2019-06-27T13:38:49.740Z,1.10
2019-06-27T13:41:18.360Z,1.10
2019-06-27T13:43:49.358Z,1.20
2019-06-27T13:46:17.450Z,0.97
2019-06-27T13:48:46.087Z,1.37
2019-06-27T13:51:14.917Z,1.00
2019-06-27T13:53:43.523Z,1.10
2019-06-27T13:56:12.171Z,1.23
2019-06-27T13:58:40.881Z,1.43
2019-06-27T14:01:11.002Z,1.70
2019-06-27T14:03:49.362Z,1.30
2019-06-27T14:06:10.068Z,1.67
2019-06-27T14:08:38.710Z,1.33
2019-06-27T14:11:07.485Z,1.40
2019-06-27T14:13:36.057Z,1.40
2019-06-27T14:16:06.093Z,1.50
2019-06-27T14:18:34.968Z,1.50
2019-06-27T14:21:03.613Z,1.63
2019-06-27T14:23:32.229Z,1.10
2019-06-27T14:26:00.886Z,2.20
2019-06-27T14:28:29.519Z,1.20
2019-06-27T14:30:58.258Z,1.47
2019-06-27T14:33:27.000Z,0.90
2019-06-27T14:35:55.753Z,1.20
2019-06-27T14:38:24.351Z,1.53
2019-06-27T14:40:53.062Z,1.43
2019-06-27T14:43:21.771Z,1.47
2019-06-27T14:45:50.487Z,1.33
2019-06-27T14:48:19.063Z,1.40
2019-06-27T14:50:47.690Z,1.43
2019-06-27T14:53:16.462Z,2.50
2019-06-27T14:55:45.069Z,1.80
2019-06-27T14:58:13.702Z,1.33
2019-06-27T15:00:42.343Z,1.90
2019-06-27T15:03:10.976Z,1.43
2019-06-27T15:05:39.669Z,1.47
2019-06-27T15:08:08.406Z,1.40
2019-06-27T15:10:37.049Z,1.57
2019-06-27T15:13:05.752Z,1.70
2019-06-27T15:15:34.547Z,1.73
2019-06-27T15:18:03.328Z,1.50
2019-06-27T15:20:32.006Z,1.40
2019-06-27T15:23:00.803Z,1.70
2019-06-27T15:25:29.524Z,1.67
2019-06-27T15:27:58.343Z,1.70
2019-06-27T15:30:27.111Z,1.60
2019-06-27T15:32:55.882Z,2.17
2019-06-27T15:35:24.634Z,1.30
2019-06-27T15:37:53.241Z,1.90
2019-06-27T15:40:22.130Z,1.80
2019-06-27T15:42:52.483Z,1.60
2019-06-27T15:45:21.201Z,1.43
2019-06-27T15:47:49.951Z,1.50
2019-06-27T15:50:18.670Z,1.73
2019-06-27T15:52:47.472Z,1.77
2019-06-27T15:55:16.186Z,1.53
2019-06-27T15:57:44.804Z,1.80
2019-06-27T16:00:13.753Z,1.70
2019-06-27T16:02:42.466Z,1.40
2019-06-27T16:05:11.642Z,2.00
2019-06-27T16:07:40.301Z,1.83
2019-06-27T16:10:09.510Z,2.10
2019-06-27T16:12:38.474Z,1.90
2019-06-27T16:15:07.229Z,2.07
2019-06-27T16:17:35.895Z,1.30
2019-06-27T16:20:04.842Z,1.80
2019-06-27T16:22:33.470Z,1.47
2019-06-27T16:25:02.463Z,1.90
2019-06-27T16:27:31.371Z,1.83
2019-06-27T16:29:59.949Z,1.73
2019-06-27T16:32:28.641Z,1.80
2019-06-27T16:34:57.299Z,1.77
2019-06-27T16:37:25.938Z,1.70
2019-06-27T16:39:54.662Z,1.53
2019-06-27T16:42:23.369Z,2.33
2019-06-27T16:44:52.169Z,1.90
2019-06-27T16:47:20.833Z,1.50
2019-06-27T16:49:49.536Z,1.93
2019-06-27T16:52:18.426Z,1.40
2019-06-27T16:54:47.097Z,1.43
2019-06-27T16:57:15.912Z,1.97
2019-06-27T16:59:44.606Z,2.10
2019-06-27T17:02:13.251Z,1.73
2019-06-27T17:04:42.005Z,1.70
2019-06-27T17:07:10.734Z,2.00
2019-06-27T17:09:39.407Z,1.70
2019-06-27T17:12:08.041Z,1.90
2019-06-27T17:14:36.762Z,1.37
2019-06-27T17:17:05.424Z,1.77
2019-06-27T17:19:34.149Z,1.80
2019-06-27T17:22:02.901Z,1.60
2019-06-27T17:24:31.566Z,1.87
2019-06-27T17:27:00.193Z,2.10
2019-06-27T17:29:28.841Z,1.87
2019-06-27T17:31:57.453Z,1.40
2019-06-27T17:34:26.150Z,1.80
2019-06-27T17:36:57.758Z,1.63
2019-06-27T17:39:25.198Z,1.83
2019-06-27T17:41:53.846Z,1.27
2019-06-27T17:44:22.505Z,1.40
2019-06-27T17:46:51.216Z,1.50
2019-06-27T17:49:19.859Z,1.60
2019-06-27T17:51:48.678Z,1.23
2019-06-27T17:54:17.293Z,1.27
2019-06-27T17:56:45.969Z,1.53
2019-06-27T17:59:14.662Z,1.20
2019-06-27T18:01:43.369Z,1.30
2019-06-27T18:04:12.000Z,1.30
2019-06-27T18:06:40.663Z,1.37
2019-06-27T18:09:09.398Z,1.00
2019-06-27T18:11:38.244Z,1.30
2019-06-27T18:14:07.245Z,1.43
2019-06-27T18:16:35.991Z,1.30
2019-06-27T18:19:04.885Z,1.67
2019-06-27T18:21:33.534Z,1.70
2019-06-27T18:24:02.216Z,1.30
2019-06-27T18:26:48.532Z,1.47
2019-06-27T18:29:17.279Z,1.30
2019-06-27T18:31:46.010Z,1.30
2019-06-27T18:34:14.655Z,1.37
2019-06-27T18:36:43.332Z,1.27
2019-06-27T18:39:11.948Z,1.20
2019-06-27T18:41:40.573Z,1.07
2019-06-27T18:44:09.261Z,1.40
2019-06-27T18:46:37.941Z,1.50
2019-06-27T18:49:06.644Z,1.13
2019-06-27T18:51:35.342Z,1.60
2019-06-27T18:54:06.455Z,1.30
2019-06-27T18:56:35.091Z,2.03
2019-06-27T18:59:03.858Z,0.97
2019-06-27T19:01:32.485Z,1.20
2019-06-27T19:04:01.385Z,1.23
2019-06-27T19:06:30.251Z,1.17
2019-06-27T19:08:58.927Z,1.50
2019-06-27T19:11:53.220Z,1.30
2019-06-27T19:14:23.203Z,1.57
2019-06-27T19:16:54.774Z,1.67
2019-06-27T19:19:28.189Z,1.20
2019-06-27T19:22:16.867Z,2.03
2019-06-27T19:24:51.742Z,1.30
2019-06-27T19:27:22.667Z,1.23
2019-06-27T19:29:51.453Z,1.60
2019-06-27T19:32:20.248Z,1.20
2019-06-27T19:34:49.274Z,1.17
2019-06-27T19:37:18.002Z,1.43
2019-06-27T19:39:46.851Z,1.83
2019-06-27T19:42:17.115Z,1.60
2019-06-27T19:44:46.975Z,1.60
2019-06-27T19:47:15.815Z,1.20
2019-06-27T19:49:53.034Z,1.50
2019-06-27T19:52:22.664Z,1.20
2019-06-27T19:54:51.411Z,1.97
2019-06-27T19:57:22.375Z,1.73
2019-06-27T19:59:51.507Z,1.47
2019-06-27T20:02:20.332Z,1.97
2019-06-27T20:04:49.049Z,1.40
2019-06-27T20:07:17.885Z,1.60
2019-06-27T20:09:46.697Z,1.40
2019-06-27T20:12:15.453Z,1.30
2019-06-27T20:14:44.352Z,1.87
2019-06-27T20:17:13.251Z,1.80
2019-06-27T20:19:42.096Z,1.30
2019-06-27T20:22:11.008Z,1.77
2019-06-27T20:24:39.745Z,1.43
2019-06-27T20:27:10.539Z,1.83
2019-06-27T20:29:51.045Z,1.30
2019-06-27T20:32:20.104Z,3.00
2019-06-27T20:34:48.877Z,1.57
2019-06-27T20:37:27.238Z,1.83
2019-06-27T20:39:54.216Z,1.67
2019-06-27T20:42:24.439Z,2.27
2019-06-27T20:44:53.252Z,2.17
2019-06-27T20:47:21.944Z,1.63
2019-06-27T20:49:50.866Z,1.30
2019-06-27T20:52:19.596Z,1.60
2019-06-27T20:54:50.796Z,1.50
2019-06-27T20:57:22.926Z,1.33
2019-06-27T20:59:51.772Z,1.70
2019-06-27T21:02:20.522Z,1.73
2019-06-27T21:04:53.510Z,1.60
2019-06-27T21:07:22.281Z,2.10
2019-06-27T21:09:51.217Z,2.40
2019-06-27T21:12:19.897Z,2.03
2019-06-27T21:14:50.871Z,2.00
2019-06-27T21:17:19.654Z,1.43
2019-06-27T21:19:48.389Z,2.67
2019-06-27T21:22:17.210Z,1.63
2019-06-27T21:24:53.727Z,2.47
2019-06-27T21:27:22.520Z,1.50
2019-06-27T21:29:51.275Z,1.70
2019-06-27T21:32:30.933Z,2.03
2019-06-27T21:34:50.510Z,1.50
2019-06-27T21:37:19.295Z,2.03
2019-06-27T21:39:48.114Z,1.47
2019-06-27T21:42:16.956Z,1.60
2019-06-27T21:44:45.911Z,1.40
2019-06-27T21:47:14.753Z,1.80
2019-06-27T21:49:43.453Z,1.50
2019-06-27T21:52:13.531Z,1.83
2019-06-27T21:54:42.318Z,1.70
2019-06-27T21:57:11.197Z,1.70
2019-06-27T21:59:39.975Z,1.63
2019-06-27T22:02:08.925Z,1.90
2019-06-27T22:04:37.966Z,1.73
2019-06-27T22:07:06.792Z,2.00
2019-06-27T22:09:35.551Z,1.83
2019-06-27T22:12:04.376Z,2.00
2019-06-27T22:14:33.191Z,1.67
2019-06-27T22:17:02.071Z,1.60
2019-06-27T22:19:30.819Z,1.83
2019-06-27T22:21:59.582Z,1.90
2019-06-27T22:24:28.419Z,1.73
2019-06-27T22:26:57.218Z,1.70
2019-06-27T22:29:25.856Z,1.83
2019-06-27T22:31:55.914Z,1.80
2019-06-27T22:34:24.662Z,2.00
2019-06-27T22:36:56.572Z,1.83
2019-06-27T22:39:42.796Z,1.50
2019-06-27T22:42:29.103Z,1.80
2019-06-27T22:45:15.740Z,1.77
2019-06-27T22:48:02.006Z,2.30
2019-06-27T22:50:44.559Z,1.50
2019-06-27T22:53:15.545Z,1.40
2019-06-27T22:55:44.326Z,2.23
2019-06-27T22:58:12.944Z,1.97
2019-06-27T23:00:41.645Z,2.07
2019-06-27T23:03:10.362Z,1.57
2019-06-27T23:05:38.980Z,1.90
2019-06-27T23:08:07.764Z,1.80
2019-06-27T23:10:36.373Z,1.90
2019-06-27T23:13:05.072Z,2.53
2019-06-27T23:15:33.819Z,1.47
2019-06-27T23:18:02.519Z,1.50
2019-06-27T23:20:31.234Z,1.53
2019-06-27T23:22:59.881Z,1.90
2019-06-27T23:25:28.493Z,2.20
2019-06-27T23:27:57.122Z,2.00
2019-06-27T23:30:25.744Z,2.10
2019-06-27T23:32:54.391Z,1.70
2019-06-27T23:35:23.006Z,1.83
2019-06-27T23:37:51.653Z,2.03
2019-06-27T23:40:20.567Z,2.43
2019-06-27T23:42:49.198Z,2.10
2019-06-27T23:45:17.859Z,2.43
2019-06-27T23:47:46.519Z,2.27
2019-06-27T23:50:15.316Z,2.67
2019-06-27T23:52:43.946Z,2.77
2019-06-27T23:55:12.556Z,1.90
2019-06-27T23:57:41.254Z,2.63
